Time;durP1;ratioP1;P1;durP2;ratioP2;P2;SDS_P1;SDS_P2;PMS_P1;PMS_P2;Temp;Humidity;BMP_temperature;BMP_pressure;BME280_temperature;BME280_humidity;BME280_pressure;Samples;Min_cycle;Max_cycle;Signal;HPM_P1;HPM_P2
2022/06/28 00:01:52;;;;;;;11.60;8.40;;;12.80;99.90;;;-144.05;89.62;125687.94;6241258;22;20022;-88
2022/06/28 00:04:19;;;;;;;13.52;8.50;;;12.80;99.90;;;-144.05;89.97;125687.94;6215221;23;20005;-86
2022/06/28 00:06:47;;;;;;;11.90;7.75;;;12.80;99.90;;;-144.05;89.84;125687.94;6241546;22;20016;-86
2022/06/28 00:09:14;;;;;;;12.73;8.20;;;12.70;99.90;;;-144.05;90.09;125687.94;6215167;22;20012;-84
2022/06/28 00:11:42;;;;;;;9.75;7.97;;;12.70;99.90;;;-144.05;90.07;125687.94;6207926;23;20099;-88
2022/06/28 00:16:58;;;;;;;10.55;7.40;;;12.60;99.90;;;-144.05;90.06;125687.94;6217605;23;20084;-88
2022/06/28 00:19:24;;;;;;;10.90;8.30;;;12.50;99.90;;;-144.05;90.15;125687.94;6191104;23;20028;-87
2022/06/28 00:21:51;;;;;;;9.88;7.93;;;12.50;99.90;;;-144.05;90.40;125687.94;6190723;23;20393;-85
2022/06/28 00:24:17;;;;;;;11.77;8.02;;;12.50;99.90;;;-144.05;90.29;125687.94;6217663;23;20306;-86
2022/06/28 00:26:43;;;;;;;12.70;8.60;;;12.50;99.90;;;-144.05;90.06;125687.94;6217208;23;20057;-86
2022/06/28 00:29:09;;;;;;;11.77;8.18;;;12.50;99.90;;;-144.05;90.01;125687.94;6208264;23;20028;-86
2022/06/28 00:31:35;;;;;;;11.30;7.85;;;12.50;99.90;;;-144.05;89.92;125687.94;6230842;23;20020;-86
2022/06/28 00:34:04;;;;;;;12.68;8.95;;;12.50;99.90;;;-144.05;90.02;125687.94;6191782;23;20019;-86
2022/06/28 00:36:31;;;;;;;12.48;9.25;;;12.50;99.90;;;-144.05;90.34;125687.94;6191003;23;20005;-86
2022/06/28 00:38:56;;;;;;;9.98;7.57;;;12.50;99.90;;;-144.05;90.00;125687.94;6191606;23;20013;-87
2022/06/28 00:41:23;;;;;;;12.98;8.15;;;12.40;99.90;;;-144.05;90.06;125687.94;6239289;23;20052;-86
2022/06/28 00:43:49;;;;;;;13.88;8.82;;;12.40;99.90;;;-144.05;90.08;125687.94;6213749;23;20035;-87
2022/06/28 00:46:15;;;;;;;11.55;7.90;;;12.40;99.90;;;-144.05;90.04;125687.94;6211148;23;20019;-87
2022/06/28 00:48:41;;;;;;;12.15;8.40;;;12.40;99.90;;;-144.05;90.11;125687.94;6195224;23;20009;-89
2022/06/28 00:51:10;;;;;;;9.85;7.82;;;12.40;99.90;;;-144.05;90.18;125687.94;6218528;23;20010;-88
2022/06/28 00:53:36;;;;;;;11.82;8.65;;;12.40;99.90;;;-144.05;90.21;125687.94;6194482;23;20092;-88
2022/06/28 00:56:03;;;;;;;10.52;7.88;;;12.40;99.90;;;-144.05;89.80;125687.94;6194258;23;20012;-88
2022/06/28 00:58:30;;;;;;;10.70;7.97;;;12.30;99.90;;;-144.05;89.74;125687.94;6192509;23;20020;-89
2022/06/28 01:00:56;;;;;;;10.25;7.80;;;12.30;99.90;;;-144.05;90.04;125687.94;6193785;23;20011;-89
2022/06/28 01:03:24;;;;;;;10.82;8.30;;;12.30;99.90;;;-144.05;90.08;125687.94;6192947;23;20071;-88
2022/06/28 01:05:52;;;;;;;11.50;8.48;;;12.30;99.90;;;-144.05;90.15;125687.94;6218665;23;20465;-85
2022/06/28 01:08:19;;;;;;;10.52;7.95;;;12.30;99.90;;;-144.05;90.04;125687.94;6191798;23;20099;-89
2022/06/28 01:10:46;;;;;;;9.27;7.18;;;12.30;99.90;;;-144.05;89.91;125687.94;6217381;23;20015;-88
2022/06/28 01:13:13;;;;;;;10.30;8.43;;;12.30;99.90;;;-144.05;90.01;125687.94;6194012;23;20087;-90
2022/06/28 01:15:42;;;;;;;11.48;8.68;;;12.20;99.90;;;-144.05;89.90;125687.94;6220670;23;20008;-90
2022/06/28 01:18:11;;;;;;;8.65;6.68;;;12.20;99.90;;;-144.05;89.77;125687.94;6193950;23;20489;-90
2022/06/28 01:20:42;;;;;;;10.98;8.05;;;12.20;99.90;;;-144.05;89.78;125687.94;6196204;23;20005;-91
2022/06/28 01:23:08;;;;;;;12.40;6.95;;;12.20;99.90;;;-144.05;89.48;125687.94;6197741;23;20558;-89
2022/06/28 01:25:35;;;;;;;9.25;6.78;;;12.10;99.90;;;-144.05;89.44;125687.94;6200321;23;20008;-92
2022/06/28 01:28:02;;;;;;;10.65;7.30;;;12.00;99.90;;;-144.05;89.31;125687.94;6205625;23;20079;-86
2022/06/28 01:30:28;;;;;;;14.40;8.05;;;12.00;99.90;;;-144.05;89.44;125687.94;6214535;23;20016;-87
2022/06/28 01:32:55;;;;;;;11.68;7.00;;;12.00;99.90;;;-144.05;89.18;125687.94;6215402;23;20001;-86
2022/06/28 01:35:21;;;;;;;11.35;8.75;;;11.90;99.90;;;-144.05;89.60;125687.94;6232446;23;20005;-89
2022/06/28 01:37:49;;;;;;;10.48;8.40;;;11.90;99.90;;;-144.05;89.64;125687.94;6196356;23;20016;-88
2022/06/28 01:40:16;;;;;;;14.07;9.43;;;11.90;99.90;;;-144.05;89.61;125687.94;6194101;23;20020;-89
2022/06/28 01:42:42;;;;;;;12.23;8.18;;;11.90;99.90;;;-144.05;89.32;125687.94;6193731;23;20019;-90
2022/06/28 01:45:10;;;;;;;12.55;7.97;;;11.90;99.90;;;-144.05;89.27;125687.94;6192211;23;20062;-90
2022/06/28 01:47:38;;;;;;;11.98;7.93;;;11.90;99.90;;;-144.05;89.00;125687.94;6192791;23;20346;-88
2022/06/28 01:50:06;;;;;;;10.13;7.53;;;11.80;99.90;;;-144.05;89.19;125687.94;6194525;23;20067;-91
2022/06/28 01:52:32;;;;;;;12.98;8.10;;;11.80;99.90;;;-144.05;89.33;125687.94;6194735;23;20005;-88
2022/06/28 01:54:58;;;;;;;11.88;7.50;;;11.70;99.90;;;-144.05;89.53;125687.94;6196177;23;20013;-90
2022/06/28 01:57:24;;;;;;;14.43;9.32;;;11.70;99.90;;;-144.05;89.61;125687.94;6197269;23;20442;-89
2022/06/28 01:59:50;;;;;;;11.98;8.73;;;11.70;99.90;;;-144.05;89.42;125687.94;6198686;23;20004;-89
2022/06/28 02:02:16;;;;;;;11.07;8.98;;;11.70;99.90;;;-144.05;89.43;125687.94;6201070;23;20009;-88
2022/06/28 02:04:42;;;;;;;16.60;10.32;;;11.70;99.90;;;-144.05;89.37;125687.94;6231413;23;20008;-88
2022/06/28 02:07:08;;;;;;;10.77;7.72;;;11.70;99.90;;;-144.05;89.12;125687.94;6206733;23;20032;-87
2022/06/28 02:09:34;;;;;;;13.10;9.63;;;11.70;99.90;;;-144.05;89.21;125687.94;6198417;23;20035;-88
2022/06/28 02:12:00;;;;;;;14.68;9.10;;;11.60;99.90;;;-144.05;89.53;125687.94;6194287;23;20009;-88
2022/06/28 02:14:26;;;;;;;18.75;10.63;;;11.70;99.90;;;-144.05;90.03;125687.94;6192839;23;20072;-87
2022/06/28 02:16:52;;;;;;;12.32;9.77;;;11.70;99.90;;;-144.05;89.63;125687.94;6192847;23;20005;-87
2022/06/28 02:19:18;;;;;;;14.02;9.63;;;11.70;99.90;;;-144.05;89.64;125687.94;6199653;23;20589;-91
2022/06/28 02:21:45;;;;;;;15.18;11.70;;;11.70;99.90;;;-144.05;90.17;125687.94;6200717;23;20050;-90
2022/06/28 02:24:12;;;;;;;18.73;11.10;;;11.70;99.90;;;-144.05;90.55;125687.94;6229652;23;20402;-91
2022/06/28 02:26:39;;;;;;;21.13;12.27;;;11.70;99.90;;;-144.05;91.14;125687.94;6224868;23;20035;-89
2022/06/28 02:29:07;;;;;;;21.52;13.98;;;11.90;99.90;;;-144.05;91.00;125687.94;6193791;23;20012;-91
2022/06/28 02:31:33;;;;;;;17.35;12.32;;;12.00;99.90;;;-144.05;90.80;125687.94;6195149;23;20088;-90
2022/06/28 02:33:59;;;;;;;16.52;12.10;;;12.00;99.90;;;-144.05;90.49;125687.94;6195370;23;20086;-89
2022/06/28 02:41:59;;;;;;;18.95;13.98;;;12.00;99.90;;;-144.05;90.61;125687.94;6153743;23;20009;-87
2022/06/28 02:44:26;;;;;;;20.52;14.00;;;12.00;99.90;;;-144.05;90.69;125687.94;6206980;23;20008;-86
2022/06/28 02:46:52;;;;;;;17.48;12.95;;;12.10;99.90;;;-144.05;90.41;125687.94;6214344;22;20016;-89
2022/06/28 02:49:18;;;;;;;20.20;13.93;;;12.10;99.90;;;-144.05;90.65;125687.94;6192802;23;20027;-89
2022/06/28 02:51:43;;;;;;;19.27;13.75;;;12.10;99.90;;;-144.05;90.53;125687.94;6193708;23;20076;-89
2022/06/28 02:54:09;;;;;;;13.00;10.88;;;12.10;99.90;;;-144.05;89.94;125687.94;6193898;23;20064;-88
2022/06/28 02:56:37;;;;;;;14.88;10.52;;;12.00;99.90;;;-144.05;89.34;125687.94;6194360;23;20004;-89
2022/06/28 02:59:03;;;;;;;17.02;9.77;;;12.00;99.90;;;-144.05;88.97;125687.94;6194497;23;20023;-90
2022/06/28 03:01:29;;;;;;;14.88;10.63;;;11.80;99.90;;;-144.05;89.73;125687.94;6194461;23;20009;-90
2022/06/28 03:03:56;;;;;;;18.73;12.98;;;11.80;99.90;;;-144.05;90.00;125687.94;6196166;23;20008;-90
2022/06/28 03:06:22;;;;;;;16.15;12.50;;;11.80;99.90;;;-144.05;90.06;125687.94;6195821;23;20047;-89
2022/06/28 03:08:48;;;;;;;12.38;9.95;;;11.90;99.90;;;-144.05;89.84;125687.94;6195406;23;20095;-90
2022/06/28 03:11:14;;;;;;;15.30;11.52;;;11.80;99.90;;;-144.05;90.12;125687.94;6195681;23;20419;-90
2022/06/28 03:13:40;;;;;;;15.27;11.05;;;11.80;99.90;;;-144.05;89.46;125687.94;6221428;23;20001;-90
2022/06/28 03:16:05;;;;;;;14.57;9.43;;;11.80;99.90;;;-144.05;89.53;125687.94;6196261;23;20039;-88
2022/06/28 03:18:31;;;;;;;12.00;8.45;;;11.70;99.90;;;-144.05;89.23;125687.94;6196270;23;20462;-89
2022/06/28 03:20:57;;;;;;;14.77;10.93;;;11.70;99.90;;;-144.05;90.01;125687.94;6196938;23;20007;-88
2022/06/28 03:23:23;;;;;;;23.30;12.43;;;11.70;99.90;;;-144.05;90.03;125687.94;6196702;23;20008;-88
2022/06/28 03:25:49;;;;;;;16.67;9.95;;;11.70;99.90;;;-144.05;89.83;125687.94;6197414;23;20561;-89
2022/06/28 03:28:15;;;;;;;15.52;10.43;;;11.80;99.90;;;-144.05;89.79;125687.94;6223436;23;20056;-90
2022/06/28 03:30:41;;;;;;;14.25;10.38;;;11.70;99.90;;;-144.05;89.62;125687.94;6222266;23;20005;-88
2022/06/28 03:33:07;;;;;;;13.32;10.10;;;11.70;99.90;;;-144.05;89.69;125687.94;6221365;23;20005;-88
2022/06/28 03:35:33;;;;;;;17.42;10.38;;;11.70;99.90;;;-144.05;89.63;125687.94;6194952;23;20009;-87
2022/06/28 05:10:25;;;;;;;11.05;8.20;;;14.20;99.90;;;-144.05;77.86;125687.94;6240907;23;20008;-85
2022/06/28 05:17:51;;;;;;;;;;;;;;;;;;;;;
2022/06/28 05:21:39;;;;;;;;;;;;;;;;;;;;;
2022/06/28 05:25:25;;;;;;;;;;;;;;;;;;;;;
2022/06/28 05:27:53;;;;;;;10.82;6.13;;;15.60;99.90;;;-144.05;72.98;125687.94;6216370;23;20339;-86
2022/06/28 05:38:54;;;;;;;9.85;6.20;;;16.30;99.90;;;-144.05;72.14;125687.94;6207261;23;20013;-86
2022/06/28 05:44:50;;;;;;;7.78;5.00;;;16.70;99.90;;;-144.05;69.06;125687.94;6086772;23;20091;-85
2022/06/28 05:47:20;;;;;;;10.23;5.25;;;16.90;99.90;;;-144.05;67.90;125687.94;6105726;23;20018;-86
2022/06/28 05:49:46;;;;;;;8.20;5.15;;;17.00;99.90;;;-144.05;66.59;125687.94;6095490;23;20309;-84
2022/06/28 05:52:12;;;;;;;8.55;5.47;;;17.20;99.90;;;-144.05;66.65;125687.94;6126317;23;20048;-89
2022/06/28 05:54:38;;;;;;;6.55;4.63;;;17.30;99.90;;;-144.05;66.33;125687.94;6130977;23;20013;-86
2022/06/28 05:57:58;;;;;;;;;;;;;;;;;;;;;
2022/06/28 06:00:35;;;;;;;;;;;;;;;;;;;;;
2022/06/28 06:03:20;;;;;;;12.55;5.15;;;17.70;99.90;;;-144.05;63.71;125687.94;6134004;23;20029;-85
2022/06/28 06:05:49;;;;;;;8.82;4.80;;;17.90;99.90;;;-144.05;63.70;125687.94;6132889;23;20388;-84
2022/06/28 06:08:15;;;;;;;10.25;4.10;;;18.00;99.90;;;-144.05;63.58;125687.94;6133639;23;20045;-85
2022/06/28 06:10:44;;;;;;;9.52;4.00;;;18.10;99.90;;;-144.05;61.46;125687.94;6135214;23;20009;-84
2022/06/28 06:13:16;;;;;;;14.35;4.22;;;18.30;99.90;;;-144.05;62.00;125687.94;6134456;23;20016;-85
2022/06/28 06:15:42;;;;;;;8.60;4.10;;;18.50;99.90;;;-144.05;61.25;125687.94;6134128;23;20014;-88
2022/06/28 06:18:08;;;;;;;5.85;3.67;;;18.60;99.90;;;-144.05;60.36;125687.94;6154248;23;20065;-86
2022/06/28 06:20:34;;;;;;;7.05;3.65;;;18.70;99.90;;;-144.05;59.65;125687.94;6131726;23;20017;-86
2022/06/28 06:26:11;;;;;;;5.88;3.38;;;19.20;99.90;;;-144.05;55.83;125687.94;6109959;23;20085;-87
2022/06/28 06:28:56;;;;;;;7.20;2.75;;;19.40;99.90;;;-144.05;55.93;125687.94;6131664;23;20021;-88
2022/06/28 06:31:22;;;;;;;12.77;3.00;;;19.70;99.90;;;-144.05;54.56;125687.94;6135227;23;20332;-88
2022/06/28 06:35:00;;;;;;;5.50;2.25;;;19.70;99.90;;;-144.05;53.51;125687.94;6136992;23;20009;-85
2022/06/28 06:38:14;;;;;;;5.22;2.88;;;20.00;99.90;;;-144.05;52.62;125687.94;6128255;23;20021;-89
2022/06/28 06:41:20;;;;;;;3.63;2.03;;;20.30;99.90;;;-144.05;51.69;125687.94;6136195;23;20062;-89
2022/06/28 06:43:46;;;;;;;5.93;2.30;;;20.80;99.90;;;-144.05;49.96;125687.94;6116063;23;20040;-89
2022/06/28 06:46:12;;;;;;;3.72;1.85;;;21.00;99.90;;;-144.05;49.29;125687.94;6129731;23;20002;-86
2022/06/28 06:48:39;;;;;;;5.15;2.20;;;21.20;99.90;;;-144.05;47.57;125687.94;6128393;23;20325;-86
2022/06/28 06:51:05;;;;;;;5.93;2.53;;;21.30;99.90;;;-144.05;46.66;125687.94;6130571;23;20175;-87
2022/06/28 06:54:21;;;;;;;6.88;2.70;;;21.50;99.90;;;-144.05;46.64;125687.94;6130036;23;20061;-85
2022/06/28 06:56:47;;;;;;;5.10;2.22;;;21.50;99.90;;;-144.05;48.65;125687.94;6104318;23;20024;-89
2022/06/28 07:00:08;;;;;;;;;;;;;;;;;;;;;
2022/06/28 07:06:45;;;;;;;3.97;1.70;;;21.80;99.90;;;-144.05;46.15;125687.94;6077858;23;20030;-88
2022/06/28 07:09:12;;;;;;;4.70;1.33;;;21.90;99.90;;;-144.05;45.30;125687.94;6071469;23;20093;-89
2022/06/28 07:11:41;;;;;;;3.33;1.30;;;22.10;99.90;;;-144.05;43.05;125687.94;6121162;23;20010;-82
2022/06/28 07:14:22;;;;;;;3.00;1.33;;;22.40;99.90;;;-144.05;42.58;125687.94;6114402;23;20062;-86
2022/06/28 07:16:53;;;;;;;4.03;1.30;;;22.70;99.90;;;-144.05;42.92;125687.94;6128452;23;20328;-83
2022/06/28 07:20:19;;;;;;;2.95;1.52;;;23.10;99.90;;;-144.05;41.78;125687.94;6129791;23;20006;-89
2022/06/28 07:23:10;;;;;;;7.10;1.60;;;23.40;99.90;;;-144.05;40.85;125687.94;6128935;23;20065;-88
2022/06/28 07:34:56;;;;;;;;;;;;;;;;;;;;;
2022/06/28 07:38:34;;;;;;;;;;;;;;;;;;;;;
2022/06/28 08:05:06;;;;;;;;;;;;;;;;;;;;;
2022/06/28 08:27:26;;;;;;;4.93;1.10;;;24.70;91.00;;;-144.05;36.82;125687.94;6107485;23;20037;-88
2022/06/28 08:29:52;;;;;;;3.17;1.00;;;24.40;90.10;;;-144.05;35.93;125687.94;6105719;23;20010;-88
2022/06/28 08:32:30;;;;;;;6.07;1.15;;;24.60;88.60;;;-144.05;36.02;125687.94;6133030;23;20010;-90
2022/06/28 08:36:35;;;;;;;;;;;;;;;;;;;;;
2022/06/28 08:38:51;;;;;;;4.93;1.00;;;25.00;84.90;;;-144.05;34.88;125687.94;6126378;23;20073;-86
2022/06/28 08:42:03;;;;;;;3.58;1.33;;;25.20;86.60;;;-144.05;35.77;125687.94;6110494;23;20317;-86
2022/06/28 08:45:59;;;;;;;3.03;1.25;;;24.90;82.80;;;-144.05;34.90;125687.94;6134872;23;20025;-91
2022/06/28 08:48:51;;;;;;;3.30;1.10;;;24.70;81.80;;;-144.05;34.17;125687.94;6105527;23;20013;-86
2022/06/28 08:51:20;;;;;;;4.80;1.00;;;25.00;79.30;;;-144.05;35.40;125687.94;6108766;23;20100;-85
2022/06/28 08:53:49;;;;;;;6.28;1.20;;;25.00;82.30;;;-144.05;35.30;125687.94;6130332;23;20089;-87
2022/06/28 08:56:16;;;;;;;2.97;1.15;;;24.80;80.30;;;-144.05;35.62;125687.94;6129703;23;20002;-84
2022/06/28 08:59:10;;;;;;;;;;;;;;;;;;;;;
2022/06/28 09:05:53;;;;;;;3.28;1.13;;;25.50;76.30;;;-144.05;32.39;125687.94;6080200;23;20021;-85
2022/06/28 09:08:26;;;;;;;3.85;1.02;;;25.80;73.70;;;-144.05;32.64;125687.94;6130955;23;20383;-85
2022/06/28 09:11:02;;;;;;;3.22;0.98;;;26.00;75.00;;;-144.05;32.57;125687.94;6131387;23;20013;-89
2022/06/28 09:13:28;;;;;;;1.00;0.70;;;25.90;74.00;;;-144.05;32.14;125687.94;6135309;23;20010;-85
2022/06/28 09:20:20;;;;;;;2.30;0.85;;;26.40;74.80;;;-144.05;34.04;125687.94;6091582;23;20522;-84
2022/06/28 09:27:13;;;;;;;3.40;0.75;;;25.30;72.40;;;-144.05;33.98;125687.94;5904972;24;20029;-87
2022/06/28 09:35:33;;;;;;;4.35;1.20;;;25.70;72.40;;;-144.05;32.81;125687.94;6003281;23;20384;-89
2022/06/28 09:40:33;;;;;;;4.03;1.13;;;26.50;69.90;;;-144.05;32.10;125687.94;6138366;23;20018;-90
2022/06/28 09:43:43;;;;;;;3.00;1.00;;;26.70;70.90;;;-144.05;31.43;125687.94;6137644;23;20006;-89
2022/06/28 09:46:14;;;;;;;2.78;1.25;;;27.00;68.80;;;-144.05;30.81;125687.94;6134480;23;20037;-87
2022/06/28 09:48:40;;;;;;;4.07;1.00;;;27.00;66.90;;;-144.05;31.14;125687.94;6103746;23;20010;-89
2022/06/28 09:51:06;;;;;;;2.65;0.80;;;27.30;67.80;;;-144.05;30.68;125687.94;6105107;23;20014;-87
2022/06/28 09:53:43;;;;;;;1.50;0.70;;;26.80;65.30;;;-144.05;32.99;125687.94;6081447;23;20010;-88
2022/06/28 09:56:17;;;;;;;2.22;1.15;;;26.80;72.40;;;-144.05;30.88;125687.94;6082011;23;20007;-89
2022/06/28 09:58:44;;;;;;;2.55;1.02;;;27.10;66.10;;;-144.05;30.82;125687.94;6081137;23;20006;-90
2022/06/28 10:01:25;;;;;;;3.58;0.98;;;27.00;65.00;;;-144.05;31.29;125687.94;6108001;23;20038;-87
2022/06/28 10:03:53;;;;;;;3.25;0.90;;;26.80;65.70;;;-144.05;31.13;125687.94;6058780;23;20014;-87
2022/06/28 10:06:21;;;;;;;3.45;0.82;;;26.80;65.70;;;-144.05;29.70;125687.94;6080656;23;20014;-87
2022/06/28 10:08:49;;;;;;;5.13;0.80;;;27.10;61.90;;;-144.05;30.70;125687.94;6104611;23;20326;-89
2022/06/28 10:11:18;;;;;;;1.88;0.77;;;26.90;63.00;;;-144.05;31.15;125687.94;6103834;23;20021;-90
2022/06/28 10:17:22;;;;;;;3.30;1.50;;;27.30;66.20;;;-144.05;29.97;125687.94;6109034;23;20377;-87
2022/06/28 10:19:52;;;;;;;2.97;1.10;;;27.40;63.00;;;-144.05;30.46;125687.94;6081763;23;20002;-88
2022/06/28 10:22:18;;;;;;;4.22;0.82;;;26.90;63.20;;;-144.05;30.50;125687.94;6106220;23;20018;-88
2022/06/28 10:25:02;;;;;;;1.85;0.75;;;27.00;64.40;;;-144.05;29.32;125687.94;6080775;23;20010;-84
2022/06/28 10:27:44;;;;;;;4.35;1.00;;;27.00;60.00;;;-144.05;29.98;125687.94;6107107;23;20006;-90
2022/06/28 10:30:29;;;;;;;3.90;0.95;;;26.50;60.40;;;-144.05;31.27;125687.94;6106171;23;20012;-87
2022/06/28 10:33:06;;;;;;;2.38;0.98;;;26.50;64.40;;;-144.05;30.75;125687.94;6106949;23;20007;-89
2022/06/28 10:35:31;;;;;;;3.88;1.13;;;27.00;62.90;;;-144.05;30.58;125687.94;6108682;23;20007;-86
2022/06/28 10:38:09;;;;;;;2.50;0.85;;;26.90;62.60;;;-144.05;30.33;125687.94;6081160;23;20058;-91
2022/06/28 10:40:41;;;;;;;2.50;0.73;;;27.10;62.80;;;-144.05;30.02;125687.94;6082318;23;20089;-87
2022/06/28 10:43:09;;;;;;;3.60;0.82;;;27.60;60.80;;;-144.05;28.54;125687.94;6083513;23;20021;-87
2022/06/28 10:46:03;;;;;;;3.17;1.00;;;27.80;58.80;;;-144.05;28.12;125687.94;6079046;23;20073;-87
2022/06/28 10:48:51;;;;;;;9.18;1.00;;;27.80;57.90;;;-144.05;27.62;125687.94;6104348;23;20006;-89
2022/06/28 10:51:20;;;;;;;3.55;1.10;;;27.80;55.90;;;-144.05;27.89;125687.94;6105370;23;20002;-88
2022/06/28 10:54:10;;;;;;;2.80;0.88;;;28.10;56.70;;;-144.05;28.28;125687.94;6107324;23;20318;-87
2022/06/28 10:56:35;;;;;;;3.45;1.17;;;28.30;57.50;;;-144.05;28.05;125687.94;6120015;23;20045;-88
2022/06/28 10:59:17;;;;;;;6.10;1.50;;;28.40;56.50;;;-144.05;27.41;125687.94;6083964;23;20073;-87
2022/06/28 11:01:42;;;;;;;5.22;0.90;;;28.30;54.50;;;-144.05;28.48;125687.94;6106301;23;20045;-88
2022/06/28 11:04:23;;;;;;;2.35;0.57;;;27.80;56.30;;;-144.05;28.63;125687.94;6083378;23;20006;-85
2022/06/28 11:06:53;;;;;;;3.97;0.85;;;27.20;56.50;;;-144.05;28.75;125687.94;6082437;23;20006;-90
2022/06/28 11:09:44;;;;;;;2.45;0.65;;;26.80;55.80;;;-144.05;29.17;125687.94;6080100;23;20006;-87
2022/06/28 11:12:24;;;;;;;4.50;0.60;;;27.10;58.20;;;-144.05;27.71;125687.94;6112283;23;20009;-89
2022/06/28 11:15:01;;;;;;;1.83;0.60;;;27.40;54.70;;;-144.05;27.84;125687.94;6093580;23;20042;-87
2022/06/28 11:17:39;;;;;;;1.73;0.63;;;27.60;54.70;;;-144.05;28.27;125687.94;6088182;23;20038;-84
2022/06/28 11:20:19;;;;;;;2.25;0.75;;;27.90;56.30;;;-144.05;27.25;125687.94;6115070;23;20021;-88
2022/06/28 11:22:51;;;;;;;3.17;0.80;;;28.20;54.30;;;-144.05;27.48;125687.94;6084550;23;20014;-85
2022/06/28 11:25:24;;;;;;;2.15;0.90;;;28.30;55.50;;;-144.05;27.47;125687.94;6106001;23;20318;-85
2022/06/28 11:27:57;;;;;;;3.05;0.90;;;28.50;55.00;;;-144.05;26.66;125687.94;6106985;23;20010;-86
2022/06/28 11:30:28;;;;;;;1.52;0.60;;;28.60;52.00;;;-144.05;27.10;125687.94;6119753;23;20017;-86
2022/06/28 11:32:59;;;;;;;4.93;0.68;;;28.50;52.30;;;-144.05;27.08;125687.94;6109549;23;20029;-90
2022/06/28 11:35:40;;;;;;;3.05;0.70;;;28.80;52.90;;;-144.05;27.82;125687.94;6078939;23;20053;-87
2022/06/28 11:38:14;;;;;;;2.83;0.73;;;28.90;53.60;;;-144.05;28.11;125687.94;6081953;23;20020;-89
2022/06/28 11:40:50;;;;;;;3.50;0.82;;;28.70;53.70;;;-144.05;26.99;125687.94;6106287;23;20007;-87
2022/06/28 11:43:27;;;;;;;4.95;0.82;;;28.20;51.20;;;-144.05;28.19;125687.94;6131417;23;20010;-85
2022/06/28 11:45:56;;;;;;;1.45;0.80;;;27.00;54.10;;;-144.05;28.73;125687.94;6102853;23;20018;-88
2022/06/28 11:48:29;;;;;;;1.52;0.60;;;26.20;54.00;;;-144.05;28.94;125687.94;6128502;23;20053;-86
2022/06/28 11:50:58;;;;;;;5.18;1.20;;;26.30;56.10;;;-144.05;28.05;125687.94;6106915;23;20011;-88
2022/06/28 11:53:27;;;;;;;3.58;1.05;;;26.60;54.70;;;-144.05;28.17;125687.94;6105436;23;20014;-87
2022/06/28 11:55:57;;;;;;;2.35;0.70;;;27.40;54.90;;;-144.05;27.74;125687.94;6132130;23;20006;-88
2022/06/28 11:58:38;;;;;;;3.75;0.95;;;28.10;53.50;;;-144.05;27.30;125687.94;6103056;23;20025;-88
2022/06/28 12:01:14;;;;;;;2.25;0.90;;;28.60;53.60;;;-144.05;27.71;125687.94;6103157;23;20081;-89
2022/06/28 12:03:43;;;;;;;3.05;0.85;;;28.80;53.60;;;-144.05;25.98;125687.94;6102702;23;20010;-88
2022/06/28 12:06:20;;;;;;;3.50;0.77;;;29.20;50.50;;;-144.05;25.87;125687.94;6103659;23;20013;-87
2022/06/28 12:09:08;;;;;;;3.67;0.82;;;29.70;51.20;;;-144.05;24.73;125687.94;6103825;23;20010;-89
2022/06/28 12:11:42;;;;;;;1.13;0.80;;;29.80;47.10;;;-144.05;25.55;125687.94;6104623;23;20045;-87
2022/06/28 12:14:16;;;;;;;2.22;0.98;;;29.70;48.80;;;-144.05;25.41;125687.94;6102172;23;20010;-89
2022/06/28 12:16:59;;;;;;;3.00;1.00;;;29.70;48.50;;;-144.05;25.45;125687.94;6104295;23;20018;-90
2022/06/28 12:19:38;;;;;;;1.27;0.63;;;29.70;47.90;;;-144.05;25.17;125687.94;6101923;23;20006;-90
2022/06/28 12:22:17;;;;;;;1.88;0.50;;;29.50;47.10;;;-144.05;26.04;125687.94;6106181;23;20007;-89
2022/06/28 12:24:45;;;;;;;2.15;0.80;;;28.70;50.20;;;-144.05;26.94;125687.94;6111274;23;20002;-88
2022/06/28 12:27:19;;;;;;;2.08;0.90;;;27.70;50.70;;;-144.05;27.59;125687.94;6104563;23;20025;-89
2022/06/28 12:29:46;;;;;;;2.80;1.00;;;27.50;52.00;;;-144.05;27.63;125687.94;6102234;23;20007;-88
2022/06/28 12:32:12;;;;;;;1.25;0.63;;;27.10;52.60;;;-144.05;27.89;125687.94;6102293;23;20018;-87
2022/06/28 12:34:40;;;;;;;2.15;0.90;;;27.30;53.10;;;-144.05;27.00;125687.94;6102834;23;20101;-89
2022/06/28 12:37:07;;;;;;;4.05;1.33;;;27.80;52.00;;;-144.05;27.35;125687.94;6106634;23;20011;-89
2022/06/28 12:39:34;;;;;;;2.25;0.95;;;28.30;52.40;;;-144.05;26.39;125687.94;6107672;23;20093;-89
2022/06/28 12:42:03;;;;;;;2.20;0.82;;;28.70;50.60;;;-144.05;25.82;125687.94;6105287;23;20002;-87
2022/06/28 12:44:30;;;;;;;4.25;1.00;;;28.90;48.60;;;-144.05;25.98;125687.94;6126621;23;20006;-85
2022/06/28 12:46:57;;;;;;;2.72;0.70;;;29.20;49.60;;;-144.05;25.03;125687.94;6103689;23;20006;-88
2022/06/28 12:49:24;;;;;;;3.25;1.00;;;29.00;47.40;;;-144.05;26.27;125687.94;6120646;23;20046;-84
2022/06/28 12:51:51;;;;;;;2.13;0.80;;;28.30;48.30;;;-144.05;26.99;125687.94;6107459;23;20358;-85
2022/06/28 12:54:19;;;;;;;2.78;0.90;;;28.10;50.40;;;-144.05;26.29;125687.94;6103164;23;20006;-85
2022/06/28 12:56:45;;;;;;;2.47;0.82;;;28.50;49.80;;;-144.05;26.13;125687.94;6127231;23;20062;-85
2022/06/28 12:59:11;;;;;;;2.30;0.82;;;28.90;49.10;;;-144.05;25.05;125687.94;6105140;23;20014;-89
2022/06/28 13:01:37;;;;;;;1.90;0.70;;;29.70;47.80;;;-144.05;25.61;125687.94;6108425;23;20010;-89
2022/06/28 13:04:13;;;;;;;2.70;0.90;;;29.70;48.00;;;-144.05;26.25;125687.94;6131404;23;20014;-91
2022/06/28 13:06:55;;;;;;;3.17;0.73;;;29.70;49.50;;;-144.05;26.24;125687.94;6107065;23;20013;-88
2022/06/28 13:09:21;;;;;;;4.55;0.80;;;29.70;49.70;;;-144.05;25.84;125687.94;6134125;23;20098;-88
2022/06/28 13:11:47;;;;;;;2.10;0.70;;;29.70;48.60;;;-144.05;25.15;125687.94;6109633;23;20437;-88
2022/06/28 13:14:13;;;;;;;1.35;0.88;;;29.50;47.20;;;-144.05;26.78;125687.94;6111143;23;20039;-87
2022/06/28 13:16:39;;;;;;;3.00;0.70;;;29.20;50.40;;;-144.05;26.73;125687.94;6105986;23;20432;-89
2022/06/28 13:19:08;;;;;;;3.33;1.20;;;29.00;49.10;;;-144.05;26.41;125687.94;6106514;23;20022;-88
2022/06/28 13:21:34;;;;;;;2.30;0.95;;;29.00;49.60;;;-144.05;25.82;125687.94;6105282;23;20337;-88
2022/06/28 13:24:00;;;;;;;2.03;0.98;;;29.00;48.60;;;-144.05;25.69;125687.94;6129029;23;20016;-88
2022/06/28 13:26:29;;;;;;;3.10;1.08;;;29.30;48.40;;;-144.05;25.41;125687.94;6131718;23;20010;-88
2022/06/28 13:28:55;;;;;;;2.45;0.73;;;29.20;48.00;;;-144.05;25.93;125687.94;6110068;23;20010;-89
2022/06/28 13:31:21;;;;;;;4.07;0.90;;;29.20;49.50;;;-144.05;25.87;125687.94;6133795;23;20010;-89
2022/06/28 13:33:48;;;;;;;2.65;0.77;;;29.00;48.80;;;-144.05;25.03;125687.94;6109671;23;20444;-90
2022/06/28 13:36:14;;;;;;;3.92;0.68;;;29.30;46.90;;;-144.05;25.29;125687.94;6108286;23;20033;-91
2022/06/28 13:38:41;;;;;;;1.30;0.70;;;29.00;46.20;;;-144.05;25.51;125687.94;6107874;23;20141;-87
2022/06/28 13:41:07;;;;;;;2.03;0.90;;;29.30;48.20;;;-144.05;25.61;125687.94;6107841;23;20010;-89
2022/06/28 13:43:33;;;;;;;1.40;0.68;;;29.30;47.70;;;-144.05;25.30;125687.94;6109579;23;20120;-88
2022/06/28 13:46:08;;;;;;;4.40;1.00;;;29.40;47.70;;;-144.05;26.04;125687.94;6106858;23;20074;-86
2022/06/28 13:48:38;;;;;;;2.78;1.00;;;29.20;48.80;;;-144.05;25.82;125687.94;6107676;23;20431;-89
2022/06/28 13:51:05;;;;;;;4.30;1.02;;;29.20;48.40;;;-144.05;25.49;125687.94;6108846;23;20010;-88
2022/06/28 13:53:37;;;;;;;2.40;0.90;;;29.20;47.70;;;-144.05;26.01;125687.94;6133378;23;20015;-90
2022/06/28 13:56:04;;;;;;;1.63;0.68;;;29.00;49.20;;;-144.05;26.26;125687.94;6109321;23;20017;-87
2022/06/28 13:58:31;;;;;;;2.15;0.70;;;29.20;49.10;;;-144.05;25.92;125687.94;6110057;23;20013;-87
2022/06/28 14:01:02;;;;;;;2.17;0.90;;;29.30;48.20;;;-144.05;26.17;125687.94;6112162;23;20014;-88